createdAt,value
2018-12-23T00:00:37.078Z,83.08
2018-12-23T00:03:06.128Z,82.97
2018-12-23T00:05:35.185Z,82.83
2018-12-23T00:08:04.287Z,82.81
2018-12-23T00:10:33.463Z,82.90
2018-12-23T00:13:02.403Z,82.91
2018-12-23T00:15:31.486Z,82.96
2018-12-23T00:18:00.530Z,82.94
2018-12-23T00:20:29.579Z,82.96
2018-12-23T00:22:58.658Z,83.01
2018-12-23T00:25:27.715Z,82.99
2018-12-23T00:27:56.776Z,83.00
2018-12-23T00:30:25.929Z,82.94
2018-12-23T00:32:54.983Z,82.86
2018-12-23T00:35:24.049Z,82.77
2018-12-23T00:37:53.127Z,82.76
2018-12-23T00:40:22.186Z,82.80
2018-12-23T00:42:51.244Z,82.78
2018-12-23T00:45:20.353Z,82.68
2018-12-23T00:47:49.620Z,82.64
2018-12-23T00:50:18.687Z,82.57
2018-12-23T00:52:47.781Z,82.51
2018-12-23T00:55:16.838Z,82.37
2018-12-23T00:57:45.906Z,82.24
2018-12-23T01:00:14.995Z,82.18
2018-12-23T01:02:44.062Z,82.08
2018-12-23T01:05:13.121Z,82.03
2018-12-23T01:07:42.211Z,82.09
2018-12-23T01:10:11.284Z,82.13
2018-12-23T01:12:40.340Z,82.31
2018-12-23T01:15:09.435Z,82.51
2018-12-23T01:17:38.492Z,82.64
2018-12-23T01:20:07.538Z,82.75
2018-12-23T01:22:36.636Z,82.82
2018-12-23T01:25:05.694Z,82.87
2018-12-23T01:27:34.763Z,82.88
2018-12-23T01:30:03.848Z,82.88
2018-12-23T01:32:32.904Z,82.83
2018-12-23T01:35:01.970Z,82.77
2018-12-23T01:37:31.090Z,82.66
2018-12-23T01:40:00.159Z,82.64
2018-12-23T01:42:29.221Z,82.61
2018-12-23T01:44:58.297Z,82.64
2018-12-23T01:47:27.491Z,82.68
2018-12-23T01:49:56.438Z,82.79
2018-12-23T01:52:25.534Z,82.91
2018-12-23T01:54:54.580Z,83.09
2018-12-23T01:57:23.630Z,83.17
2018-12-23T01:59:52.757Z,83.32
2018-12-23T02:02:21.815Z,83.27
2018-12-23T02:04:50.862Z,83.22
2018-12-23T02:07:19.939Z,83.24
2018-12-23T02:09:48.993Z,83.20
2018-12-23T02:12:18.044Z,83.20
2018-12-23T02:14:47.125Z,83.18
2018-12-23T02:20:18.303Z,83.12
2018-12-23T02:22:47.355Z,83.11
2018-12-23T02:25:16.474Z,83.08
2018-12-23T02:27:45.486Z,83.04
2018-12-23T02:30:14.546Z,83.02
2018-12-23T02:32:43.678Z,82.95
2018-12-23T02:35:12.836Z,82.88
2018-12-23T02:37:41.899Z,82.80
2018-12-23T02:40:10.940Z,82.75
2018-12-23T02:42:40.054Z,82.68
2018-12-23T02:45:09.106Z,82.56
2018-12-23T02:47:38.315Z,82.43
2018-12-23T02:50:07.433Z,82.31
2018-12-23T02:52:36.500Z,82.19
2018-12-23T02:55:05.537Z,82.13
2018-12-23T02:57:34.635Z,82.12
2018-12-23T03:00:03.684Z,82.12
2018-12-23T03:02:32.738Z,82.17
2018-12-23T03:05:01.840Z,82.27
2018-12-23T03:07:30.915Z,82.38
2018-12-23T03:09:59.968Z,82.55
2018-12-23T03:12:29.057Z,82.73
2018-12-23T03:14:58.119Z,82.79
2018-12-23T03:17:27.227Z,82.91
2018-12-23T03:19:56.278Z,82.98
2018-12-23T03:22:25.338Z,83.03
2018-12-23T03:24:54.405Z,83.11
2018-12-23T03:30:20.802Z,83.14
2018-12-23T03:32:49.893Z,83.13
2018-12-23T03:35:18.955Z,83.11
2018-12-23T03:37:48.015Z,83.08
2018-12-23T03:40:17.113Z,83.04
2018-12-23T03:42:46.169Z,83.03
2018-12-23T03:45:15.239Z,82.99
2018-12-23T03:47:44.355Z,82.97
2018-12-23T03:50:13.420Z,82.89
2018-12-23T03:52:42.478Z,82.83
2018-12-23T03:55:11.562Z,82.73
2018-12-23T03:57:48.575Z,82.55
2018-12-23T04:00:17.659Z,82.55
2018-12-23T04:02:46.712Z,82.17
2018-12-23T04:05:15.764Z,82.08
2018-12-23T04:07:44.860Z,82.04
2018-12-23T04:10:13.892Z,82.10
2018-12-23T04:12:42.934Z,82.22
2018-12-23T04:15:12.025Z,82.31
2018-12-23T04:17:41.064Z,82.21
2018-12-23T04:20:10.117Z,82.18
2018-12-23T04:22:39.195Z,82.14
2018-12-23T04:25:08.252Z,82.12
2018-12-23T04:27:37.303Z,82.26
2018-12-23T04:30:06.397Z,82.37
2018-12-23T04:32:35.436Z,82.44
2018-12-23T04:35:04.491Z,82.37
2018-12-23T04:37:33.584Z,82.41
2018-12-23T04:40:02.642Z,82.42
2018-12-23T04:42:31.688Z,82.44
2018-12-23T04:45:00.782Z,82.47
2018-12-23T04:47:29.840Z,82.46
2018-12-23T04:49:58.886Z,82.46
2018-12-23T04:52:27.991Z,82.45
2018-12-23T04:54:57.043Z,82.42
2018-12-23T04:57:26.104Z,82.43
2018-12-23T04:59:55.182Z,82.44
2018-12-23T05:02:24.233Z,82.43
2018-12-23T05:04:53.290Z,82.42
2018-12-23T05:07:34.391Z,82.40
2018-12-23T05:10:03.448Z,82.40
2018-12-23T05:12:32.502Z,82.38
2018-12-23T05:15:01.590Z,82.37
2018-12-23T05:17:30.641Z,82.35
2018-12-23T05:19:59.702Z,82.33
2018-12-23T05:22:28.799Z,82.29
2018-12-23T05:24:57.875Z,82.28
2018-12-23T05:27:44.373Z,82.21
2018-12-23T05:30:13.436Z,82.20
2018-12-23T05:32:42.497Z,82.20
2018-12-23T05:35:11.593Z,82.16
2018-12-23T05:37:40.661Z,82.12
2018-12-23T05:40:09.729Z,82.13
2018-12-23T05:42:38.816Z,82.17
2018-12-23T05:45:07.886Z,82.10
2018-12-23T05:47:53.873Z,82.10
2018-12-23T05:50:22.934Z,82.09
2018-12-23T05:52:52.009Z,82.06
2018-12-23T05:55:24.345Z,82.08
2018-12-23T05:57:53.400Z,82.01
2018-12-23T06:00:22.475Z,82.08
2018-12-23T06:02:51.584Z,82.01
2018-12-23T06:05:20.649Z,82.08
2018-12-23T06:07:49.772Z,82.11
2018-12-23T06:10:18.896Z,82.08
2018-12-23T06:12:47.955Z,82.07
2018-12-23T06:15:17.000Z,81.98
2018-12-23T06:17:46.088Z,81.96
2018-12-23T06:20:15.157Z,82.00
2018-12-23T06:22:44.210Z,81.98
2018-12-23T06:25:13.297Z,81.99
2018-12-23T06:27:42.350Z,81.92
2018-12-23T06:30:11.412Z,81.91
2018-12-23T06:32:40.514Z,81.92
2018-12-23T06:35:09.630Z,81.92
2018-12-23T06:37:38.644Z,81.92
2018-12-23T06:40:07.739Z,81.98
2018-12-23T06:42:36.799Z,81.99
2018-12-23T06:45:05.848Z,81.96
2018-12-23T06:47:34.945Z,81.97
2018-12-23T06:50:04.056Z,81.99
2018-12-23T06:52:33.123Z,81.96
2018-12-23T06:55:02.230Z,81.98
2018-12-23T06:57:31.288Z,81.97
2018-12-23T07:00:00.357Z,82.02
2018-12-23T07:02:29.439Z,82.02
2018-12-23T07:04:58.500Z,82.02
2018-12-23T07:07:27.564Z,82.06
2018-12-23T07:09:56.655Z,81.67
2018-12-23T07:12:25.711Z,81.83
2018-12-23T07:14:54.779Z,81.88
2018-12-23T07:17:23.894Z,81.87
2018-12-23T07:19:52.956Z,81.92
2018-12-23T07:22:22.017Z,81.96
2018-12-23T07:24:52.052Z,81.98
2018-12-23T07:27:21.116Z,81.98
2018-12-23T07:29:54.237Z,81.98
2018-12-23T07:32:27.543Z,81.98
2018-12-23T07:34:56.811Z,81.99
2018-12-23T07:37:27.699Z,81.95
2018-12-23T07:39:54.954Z,81.89
2018-12-23T07:42:24.045Z,81.87
2018-12-23T07:44:53.105Z,81.86
2018-12-23T07:47:22.148Z,81.82
2018-12-23T07:49:51.241Z,81.76
2018-12-23T07:52:20.310Z,81.79
2018-12-23T07:54:49.374Z,81.75
2018-12-23T07:57:18.612Z,81.76
2018-12-23T07:59:47.670Z,81.75
2018-12-23T08:02:16.747Z,81.69
2018-12-23T08:04:45.827Z,81.62
2018-12-23T08:07:14.891Z,81.53
2018-12-23T08:09:43.948Z,81.49
2018-12-23T08:12:13.111Z,81.47
2018-12-23T08:14:42.160Z,81.47
2018-12-23T08:17:11.218Z,81.47
2018-12-23T08:19:40.354Z,81.45
2018-12-23T08:22:09.415Z,81.47
2018-12-23T08:24:38.481Z,81.53
2018-12-23T08:27:07.569Z,81.51
2018-12-23T08:29:36.633Z,81.51
2018-12-23T08:32:05.688Z,81.54
2018-12-23T08:34:34.785Z,81.54
2018-12-23T08:37:03.850Z,81.51
2018-12-23T08:39:32.918Z,81.54
2018-12-23T08:42:02.168Z,81.53
2018-12-23T08:44:31.218Z,81.46
2018-12-23T08:47:00.282Z,81.35
2018-12-23T08:49:29.382Z,81.43
2018-12-23T08:51:58.443Z,81.46
2018-12-23T08:54:27.512Z,81.40
2018-12-23T08:56:56.613Z,81.36
2018-12-23T08:59:25.687Z,81.37
2018-12-23T09:01:54.737Z,81.36
2018-12-23T09:04:23.843Z,81.32
2018-12-23T09:06:57.436Z,81.29
2018-12-23T09:09:26.594Z,81.11
2018-12-23T09:11:55.656Z,81.14
2018-12-23T09:14:24.711Z,80.93
2018-12-23T09:16:53.800Z,80.98
2018-12-23T09:19:22.865Z,80.88
2018-12-23T09:21:51.933Z,80.69
2018-12-23T09:24:21.039Z,80.76
2018-12-23T09:26:50.159Z,80.85
2018-12-23T09:29:19.226Z,80.87
2018-12-23T09:31:48.311Z,80.94
2018-12-23T09:34:17.394Z,80.68
2018-12-23T09:36:47.737Z,80.61
2018-12-23T09:39:15.534Z,80.50
2018-12-23T09:41:44.592Z,80.53
2018-12-23T09:44:13.661Z,80.51
2018-12-23T09:46:46.163Z,80.49
2018-12-23T09:49:15.221Z,80.36
2018-12-23T09:51:44.280Z,80.06
2018-12-23T09:54:13.365Z,79.81
2018-12-23T09:56:42.427Z,80.11
2018-12-23T09:59:11.485Z,80.25
2018-12-23T10:01:40.574Z,80.23
2018-12-23T10:04:09.637Z,80.26
2018-12-23T10:07:03.395Z,80.16
2018-12-23T10:09:32.463Z,80.22
2018-12-23T10:12:01.544Z,80.16
2018-12-23T10:14:30.610Z,80.09
2018-12-23T10:16:59.672Z,80.00
2018-12-23T10:19:28.764Z,79.94
2018-12-23T10:21:57.834Z,79.95
2018-12-23T10:24:26.891Z,79.89
2018-12-23T10:26:55.993Z,79.67
2018-12-23T10:29:25.068Z,79.63
2018-12-23T10:31:54.143Z,79.56
2018-12-23T10:34:23.259Z,79.49
2018-12-23T10:36:52.334Z,79.22
2018-12-23T10:39:21.398Z,79.20
2018-12-23T10:41:50.477Z,79.25
2018-12-23T10:44:19.528Z,79.17
2018-12-23T10:46:48.589Z,79.17
2018-12-23T10:49:17.694Z,79.11
2018-12-23T10:51:46.750Z,79.17
2018-12-23T10:54:15.813Z,79.25
2018-12-23T10:56:44.897Z,79.12
2018-12-23T10:59:13.971Z,78.68
2018-12-23T11:01:43.029Z,78.58
2018-12-23T11:04:12.119Z,78.66
2018-12-23T11:06:41.184Z,78.60
2018-12-23T11:09:10.256Z,78.70
2018-12-23T11:11:39.406Z,78.66
2018-12-23T11:14:08.462Z,78.73
2018-12-23T11:16:37.527Z,78.80
2018-12-23T11:19:06.612Z,78.81
2018-12-23T11:21:37.209Z,78.85
2018-12-23T11:24:04.761Z,78.91
2018-12-23T11:26:33.851Z,78.97
2018-12-23T11:29:02.918Z,78.91
2018-12-23T11:31:31.972Z,78.90
2018-12-23T11:34:01.075Z,78.98
2018-12-23T11:39:29.972Z,78.60
2018-12-23T11:41:59.026Z,78.55
2018-12-23T11:44:28.090Z,78.39
2018-12-23T11:46:59.215Z,78.30
2018-12-23T11:49:28.269Z,78.42
2018-12-23T11:51:57.322Z,78.52
2018-12-23T11:54:26.427Z,78.49
2018-12-23T11:56:55.495Z,78.63
2018-12-23T11:59:24.561Z,78.58
2018-12-23T12:01:53.655Z,78.68
2018-12-23T12:04:22.713Z,78.67
2018-12-23T12:07:04.974Z,78.73
2018-12-23T12:09:34.039Z,79.01
2018-12-23T12:12:03.106Z,79.05
2018-12-23T12:14:32.216Z,79.14
2018-12-23T12:17:01.280Z,79.32
2018-12-23T12:19:30.354Z,79.42
2018-12-23T12:21:59.431Z,79.54
2018-12-23T12:24:28.500Z,79.68
2018-12-23T12:26:57.560Z,79.85
2018-12-23T12:29:26.643Z,79.88
2018-12-23T12:31:55.716Z,79.94
2018-12-23T12:34:24.773Z,79.97
2018-12-23T12:36:53.887Z,80.03
2018-12-23T12:39:22.961Z,80.06
2018-12-23T12:41:52.030Z,80.06
2018-12-23T12:44:21.133Z,80.04
2018-12-23T12:46:50.207Z,80.01
2018-12-23T12:49:19.275Z,80.06
2018-12-23T12:51:48.380Z,80.04
2018-12-23T12:54:17.455Z,80.08
2018-12-23T12:56:46.521Z,80.15
2018-12-23T12:59:15.612Z,80.22
2018-12-23T13:01:44.674Z,80.24
2018-12-23T13:04:13.738Z,80.33
2018-12-23T13:06:42.850Z,80.37
2018-12-23T13:09:11.916Z,80.44
2018-12-23T13:11:40.981Z,80.51
2018-12-23T13:14:10.084Z,80.58
2018-12-23T13:19:41.856Z,80.64
2018-12-23T13:22:10.928Z,80.72
2018-12-23T13:24:39.991Z,80.86
2018-12-23T13:27:09.106Z,80.91
2018-12-23T13:29:38.169Z,80.90
2018-12-23T13:32:07.245Z,80.94
2018-12-23T13:34:36.345Z,81.13
2018-12-23T13:37:05.416Z,81.49
2018-12-23T13:39:34.480Z,81.64
2018-12-23T13:42:05.117Z,81.88
2018-12-23T13:44:48.363Z,82.07
2018-12-23T13:47:23.103Z,81.98
2018-12-23T13:49:58.686Z,82.13
2018-12-23T13:52:30.466Z,82.36
2018-12-23T13:54:59.540Z,82.36
2018-12-23T13:57:28.798Z,82.42
2018-12-23T14:00:16.796Z,82.57
2018-12-23T14:02:47.568Z,82.78
2018-12-23T14:05:16.611Z,82.82
2018-12-23T14:07:45.752Z,82.91
2018-12-23T14:10:16.403Z,83.01
2018-12-23T14:12:43.877Z,83.16
2018-12-23T14:15:12.967Z,83.32
2018-12-23T14:17:42.040Z,83.41
2018-12-23T14:20:11.095Z,83.57
2018-12-23T14:22:40.209Z,83.67
2018-12-23T14:25:09.392Z,83.66
2018-12-23T14:27:38.363Z,83.39
2018-12-23T14:30:07.698Z,83.53
2018-12-23T14:32:36.772Z,83.51
2018-12-23T14:35:05.841Z,83.59
2018-12-23T14:37:34.930Z,83.54
2018-12-23T14:40:04.008Z,83.66
2018-12-23T14:42:35.336Z,83.61
2018-12-23T14:45:04.492Z,83.56
2018-12-23T14:47:33.564Z,83.68
2018-12-23T14:50:02.644Z,83.57
2018-12-23T14:52:31.800Z,83.65
2018-12-23T14:55:00.868Z,83.60
2018-12-23T14:57:30.783Z,83.73
2018-12-23T14:59:59.042Z,83.69
2018-12-23T15:02:28.109Z,83.60
2018-12-23T15:04:57.173Z,83.73
2018-12-23T15:10:27.329Z,83.82
2018-12-23T15:12:56.428Z,83.74
2018-12-23T15:15:24.912Z,83.75
2018-12-23T15:17:54.417Z,83.69
2018-12-23T15:20:23.549Z,83.70
2018-12-23T15:22:52.628Z,83.58
2018-12-23T15:25:21.767Z,83.61
2018-12-23T15:27:50.915Z,83.44
2018-12-23T15:30:19.989Z,83.32
2018-12-23T15:32:49.059Z,83.46
2018-12-23T15:35:18.144Z,83.54
2018-12-23T15:37:47.242Z,83.54
2018-12-23T15:40:16.315Z,83.48
2018-12-23T15:42:45.410Z,83.34
2018-12-23T15:45:14.538Z,83.32
2018-12-23T15:47:48.922Z,83.30
2018-12-23T15:50:17.985Z,83.42
2018-12-23T15:52:47.046Z,83.54
2018-12-23T15:55:16.152Z,83.74
2018-12-23T15:57:45.249Z,83.69
2018-12-23T16:00:14.318Z,83.82
2018-12-23T16:02:43.430Z,83.82
2018-12-23T16:05:12.527Z,83.84
2018-12-23T16:07:41.605Z,83.96
2018-12-23T16:10:10.854Z,83.93
2018-12-23T16:12:39.926Z,83.92
2018-12-23T16:15:08.996Z,83.92
2018-12-23T16:17:38.100Z,83.82
2018-12-23T16:20:07.176Z,83.84
2018-12-23T16:22:36.250Z,83.79
2018-12-23T16:25:05.355Z,83.83
2018-12-23T16:27:34.430Z,83.79
2018-12-23T16:30:03.492Z,83.82
2018-12-23T16:32:32.639Z,83.87
2018-12-23T16:35:01.715Z,83.84
2018-12-23T16:37:30.801Z,83.90
2018-12-23T16:39:59.935Z,83.89
2018-12-23T16:42:28.980Z,83.93
2018-12-23T16:44:58.050Z,83.85
2018-12-23T16:47:27.180Z,83.81
2018-12-23T16:49:56.253Z,83.71
2018-12-23T16:52:25.312Z,83.68
2018-12-23T16:54:54.454Z,83.71
2018-12-23T16:57:23.504Z,83.63
2018-12-23T16:59:52.573Z,83.55
2018-12-23T17:02:21.691Z,83.40
2018-12-23T17:04:50.763Z,83.33
2018-12-23T17:07:19.831Z,83.32
2018-12-23T17:09:48.957Z,83.24
2018-12-23T17:12:18.043Z,83.25
2018-12-23T17:14:47.119Z,83.23
2018-12-23T17:17:16.266Z,83.22
2018-12-23T17:19:45.342Z,83.22
2018-12-23T17:22:14.410Z,83.20
2018-12-23T17:24:43.611Z,83.16
2018-12-23T17:27:12.708Z,83.10
2018-12-23T17:29:41.848Z,83.06
2018-12-23T17:32:10.933Z,83.05
2018-12-23T17:34:40.014Z,83.03
2018-12-23T17:37:09.076Z,83.01
2018-12-23T17:39:38.223Z,82.97
2018-12-23T17:42:07.297Z,82.95
2018-12-23T17:44:36.363Z,82.92
2018-12-23T17:50:21.371Z,82.83
2018-12-23T17:52:50.467Z,82.80
2018-12-23T17:55:19.531Z,82.78
2018-12-23T17:57:48.599Z,82.74
2018-12-23T18:00:17.706Z,82.74
2018-12-23T18:02:46.793Z,82.70
2018-12-23T18:05:15.879Z,82.66
2018-12-23T18:07:44.980Z,82.61
2018-12-23T18:10:14.053Z,82.61
2018-12-23T18:12:43.120Z,82.54
2018-12-23T18:15:12.257Z,82.48
2018-12-23T18:17:41.324Z,82.46
2018-12-23T18:20:10.400Z,82.38
2018-12-23T18:22:39.540Z,82.37
2018-12-23T18:25:08.620Z,82.40
2018-12-23T18:27:37.741Z,82.38
2018-12-23T18:30:06.846Z,82.43
2018-12-23T18:32:35.931Z,82.43
2018-12-23T18:35:05.177Z,82.36
2018-12-23T18:37:34.275Z,82.40
2018-12-23T18:40:03.338Z,82.41
2018-12-23T18:42:32.400Z,82.41
2018-12-23T18:45:01.538Z,82.38
2018-12-23T18:47:30.611Z,82.32
2018-12-23T18:49:59.672Z,82.43
2018-12-23T18:52:28.810Z,82.37
2018-12-23T18:54:57.866Z,82.37
2018-12-23T18:57:26.921Z,82.38
2018-12-23T18:59:56.003Z,82.28
2018-12-23T19:02:25.077Z,82.35
2018-12-23T19:04:54.149Z,82.25
2018-12-23T19:07:23.268Z,82.27
2018-12-23T19:09:52.354Z,82.31
2018-12-23T19:12:26.360Z,82.24
2018-12-23T19:15:02.916Z,82.21
2018-12-23T19:17:34.593Z,82.33
2018-12-23T19:20:05.303Z,82.42
2018-12-23T19:22:34.357Z,82.47
2018-12-23T19:25:05.447Z,82.58
2018-12-23T19:27:36.429Z,82.49
2018-12-23T19:30:12.956Z,82.58
2018-12-23T19:32:56.139Z,82.61
2018-12-23T19:35:29.022Z,82.62
2018-12-23T19:38:00.876Z,82.66
2018-12-23T19:40:51.511Z,82.64
2018-12-23T19:43:39.368Z,82.74
2018-12-23T19:46:20.992Z,82.67
2018-12-23T19:48:57.929Z,82.59
2018-12-23T19:51:32.009Z,82.59
2018-12-23T19:54:01.903Z,82.50
2018-12-23T19:56:33.677Z,82.59
2018-12-23T19:59:08.515Z,82.60
2018-12-23T20:01:56.282Z,82.65
2018-12-23T20:04:26.182Z,82.64
2018-12-23T20:06:58.823Z,82.64
2018-12-23T20:09:42.113Z,82.62
2018-12-23T20:12:18.718Z,82.61
2018-12-23T20:14:50.712Z,82.60
2018-12-23T20:17:26.276Z,82.61
2018-12-23T20:19:58.869Z,82.58
2018-12-23T20:22:32.672Z,82.56
2018-12-23T20:25:01.734Z,82.56
2018-12-23T20:27:34.490Z,82.52
2018-12-23T20:30:07.219Z,82.50
2018-12-23T20:32:41.295Z,82.47
2018-12-23T20:35:16.009Z,82.40
2018-12-23T20:37:46.916Z,82.42
2018-12-23T20:40:27.795Z,82.38
2018-12-23T20:43:02.458Z,82.35
2018-12-23T20:45:43.345Z,82.37
2018-12-23T20:48:12.429Z,82.35
2018-12-23T20:50:41.517Z,82.34
2018-12-23T20:56:03.546Z,82.31
2018-12-23T20:58:37.413Z,82.27
2018-12-23T21:01:22.095Z,82.21
2018-12-23T21:03:57.021Z,82.19
2018-12-23T21:06:28.786Z,82.19
2018-12-23T21:08:58.773Z,82.15
2018-12-23T21:11:32.397Z,82.09
2018-12-23T21:14:07.184Z,81.92
2018-12-23T21:16:37.124Z,81.99
2018-12-23T21:19:06.985Z,82.04
2018-12-23T21:21:36.844Z,82.02
2018-12-23T21:24:11.845Z,82.02
2018-12-23T21:26:47.392Z,82.03
2018-12-23T21:29:19.400Z,81.96
2018-12-23T21:31:50.277Z,81.98
2018-12-23T21:34:27.083Z,82.01
2018-12-23T21:36:59.897Z,82.02
2018-12-23T21:39:30.931Z,81.99
2018-12-23T21:42:04.824Z,81.99
2018-12-23T21:44:35.709Z,81.94
2018-12-23T21:47:14.213Z,81.95
2018-12-23T21:49:49.318Z,81.94
2018-12-23T21:52:18.377Z,81.92
2018-12-23T21:54:50.288Z,81.92
2018-12-23T21:57:34.618Z,81.92
2018-12-23T22:02:57.399Z,81.95
2018-12-23T22:05:28.451Z,81.92
2018-12-23T22:08:11.449Z,81.88
2018-12-23T22:10:47.300Z,81.90
2018-12-23T22:13:30.532Z,81.86
2018-12-23T22:15:59.625Z,81.81
2018-12-23T22:18:28.688Z,81.82
2018-12-23T22:20:57.758Z,81.72
2018-12-23T22:23:26.888Z,81.81
2018-12-23T22:25:55.947Z,81.68
2018-12-23T22:28:25.003Z,81.61
2018-12-23T22:30:54.097Z,81.84
2018-12-23T22:33:23.153Z,81.94
2018-12-23T22:35:52.213Z,82.04
2018-12-23T22:38:21.322Z,82.02
2018-12-23T22:40:50.368Z,82.03
2018-12-23T22:43:19.489Z,82.08
2018-12-23T22:45:48.596Z,82.03
2018-12-23T22:48:17.659Z,82.04
2018-12-23T22:50:46.712Z,82.07
2018-12-23T22:53:15.844Z,82.07
2018-12-23T22:55:44.912Z,82.06
2018-12-23T22:58:13.964Z,82.08
2018-12-23T23:00:43.053Z,82.00
2018-12-23T23:03:12.128Z,82.08
2018-12-23T23:05:41.181Z,82.12
2018-12-23T23:08:10.384Z,82.09
2018-12-23T23:10:39.465Z,82.02
2018-12-23T23:13:08.526Z,81.97
2018-12-23T23:15:37.612Z,81.94
2018-12-23T23:18:06.662Z,81.83
2018-12-23T23:20:35.730Z,81.86
2018-12-23T23:23:04.812Z,81.86
2018-12-23T23:25:33.869Z,81.53
2018-12-23T23:28:02.916Z,81.46
2018-12-23T23:30:31.995Z,80.93
2018-12-23T23:33:01.045Z,81.19
2018-12-23T23:35:30.157Z,81.07
2018-12-23T23:37:59.232Z,80.80
2018-12-23T23:40:28.270Z,81.23
2018-12-23T23:42:57.311Z,80.57
2018-12-23T23:45:26.378Z,80.35
2018-12-23T23:47:55.420Z,80.73
2018-12-23T23:50:24.470Z,80.46
2018-12-23T23:52:53.567Z,80.92
2018-12-23T23:55:22.613Z,81.10
2018-12-23T23:57:51.665Z,81.30
